^^
Grace C. Lehan Memorial Weather Station Historical Data
Daily Summary for February 19, 2021 Units:  Metric    English   Both
Daily Weekly Monthly Yearly
  High: Low: Average:
Temperature: 23.7 °C 15.4 °C 20.2 °C
Dew Point: 19.2 °C 9.6 °C 13.6 °C
Humidity: 88% 41.6% 68%
Wind Speed: 8km/h 0km/h 1.1km/h
Wind Gust: 20.9km/h - -
Wind- - SW
Pressure: 1022.9 hPa 1015.8 hPa -
Precipitation: 0 mm    
 
 
Tabular Data for February 19, 2021
Time Temperature Dew Point Pressure Wind Wind Speed Wind Gust Humidity Rainfall Rate (Hourly) solar
00:09 21.4 °C 19.2 °C 1016.1 hPa NNW 1.3 km/h 8 km/h 87% 0 mm 0 W/m2
00:14 21.4 °C 19.2 °C 1016.1 hPa NNW 2.9 km/h 16.1 km/h 87% 0 mm 0 W/m2
00:19 21.4 °C 19.2 °C 1016.1 hPa NW 2.1 km/h 16.1 km/h 87% 0 mm 0 W/m2
00:24 21.4 °C 19.2 °C 1016.1 hPa NW 1 km/h 16.1 km/h 87% 0 mm 0 W/m2
00:29 21.3 °C 19.1 °C 1016.1 hPa NW 1.1 km/h 16.1 km/h 87% 0 mm 0 W/m2
00:34 21.3 °C 19.1 °C 1016.1 hPa NW 2.3 km/h 16.1 km/h 87% 0 mm 0 W/m2
00:39 21.2 °C 19.1 °C 1016.1 hPa NW 1.9 km/h 11.3 km/h 87.3% 0 mm 0 W/m2
00:44 21.2 °C 19.1 °C 1016.1 hPa NW 1.4 km/h 11.3 km/h 87.6% 0 mm 0 W/m2
00:49 21.1 °C 19.1 °C 1016.1 hPa NW 1.8 km/h 11.3 km/h 88% 0 mm 0 W/m2
00:54 21.1 °C 19 °C 1016.1 hPa NW 1.1 km/h 11.3 km/h 88% 0 mm 0 W/m2
00:59 21 °C 18.9 °C 1016.1 hPa NW 0.6 km/h 11.3 km/h 88% 0 mm 0 W/m2
01:04 20.9 °C 18.9 °C 1016.1 hPa NNW 0.6 km/h 11.3 km/h 88% 0 mm 0 W/m2
01:09 20.9 °C 18.8 °C 1015.8 hPa NNW 0.3 km/h 9.7 km/h 88% 0 mm 0 W/m2
01:14 20.8 °C 18.8 °C 1016.1 hPa North 0.8 km/h 9.7 km/h 88% 0 mm 0 W/m2
01:19 20.8 °C 18.7 °C 1016.1 hPa North 0.5 km/h 9.7 km/h 88% 0 mm 0 W/m2
01:24 20.7 °C 18.6 °C 1016.1 hPa North 1.9 km/h 9.7 km/h 88% 0 mm 0 W/m2
01:29 20.6 °C 18.5 °C 1016.1 hPa NNW 2.3 km/h 9.7 km/h 87.7% 0 mm 0 W/m2
01:34 20.6 °C 18.3 °C 1016.1 hPa North 1.6 km/h 9.7 km/h 87% 0 mm 0 W/m2
01:39 20.6 °C 18.3 °C 1016.1 hPa NNW 1.3 km/h 8 km/h 87% 0 mm 0 W/m2
01:44 20.5 °C 18.3 °C 1016.1 hPa NNW 0.8 km/h 8 km/h 87% 0 mm 0 W/m2
01:49 20.4 °C 18.2 °C 1016.1 hPa NNW 0.3 km/h 8 km/h 87% 0 mm 0 W/m2
01:54 20.4 °C 18.1 °C 1016.1 hPa NNW 0.3 km/h 8 km/h 86.5% 0 mm 0 W/m2
01:59 20.3 °C 17.9 °C 1016.1 hPa NNW 0.2 km/h 8 km/h 86% 0 mm 0 W/m2
02:04 20.2 °C 17.8 °C 1016.1 hPa NNW 1.3 km/h 8 km/h 86% 0 mm 0 W/m2
02:09 20.2 °C 17.7 °C 1016.1 hPa NW 1.1 km/h 8 km/h 86% 0 mm 0 W/m2
02:14 20.1 °C 17.6 °C 1016.1 hPa NW 0.5 km/h 8 km/h 85.5% 0 mm 0 W/m2
02:19 20 °C 17.4 °C 1016.1 hPa NNW 0.5 km/h 8 km/h 85% 0 mm 0 W/m2
02:24 19.9 °C 17.3 °C 1016.1 hPa NNW 0.3 km/h 8 km/h 85% 0 mm 0 W/m2
02:29 19.8 °C 17.2 °C 1016.1 hPa Calm   8 km/h 85% 0 mm 0 W/m2
02:34 19.7 °C 17.2 °C 1016.1 hPa NNW 0.6 km/h 8 km/h 85% 0 mm 0 W/m2
02:39 19.7 °C 17.2 °C 1016.1 hPa NNW 0.5 km/h 6.4 km/h 85.5% 0 mm 0 W/m2
02:44 19.6 °C 17.2 °C 1016.1 hPa NNW 0.5 km/h 6.4 km/h 86% 0 mm 0 W/m2
02:49 19.4 °C 17.1 °C 1016.1 hPa NNW 0.2 km/h 6.4 km/h 86% 0 mm 0 W/m2
02:54 19.3 °C 16.9 °C 1016.1 hPa NNW 0.8 km/h 9.7 km/h 85.8% 0 mm 0 W/m2
02:59 19.2 °C 16.7 °C 1016.1 hPa NNW 0.8 km/h 9.7 km/h 85% 0 mm 0 W/m2
03:04 19.2 °C 16.6 °C 1016.1 hPa NNW 0.3 km/h 9.7 km/h 85% 0 mm 0 W/m2
03:09 19.1 °C 16.4 °C 1016.1 hPa NNW 1.3 km/h 8 km/h 85% 0 mm 0 W/m2
03:14 18.9 °C 16.4 °C 1016.1 hPa NNW 0.2 km/h 8 km/h 85% 0 mm 0 W/m2
03:19 18.9 °C 16.3 °C 1016.1 hPa NNW 1 km/h 8 km/h 85% 0 mm 0 W/m2
03:24 18.8 °C 16.3 °C 1016.1 hPa NNW 0.8 km/h 8 km/h 85% 0 mm 0 W/m2
03:29 18.8 °C 16.2 °C 1016.1 hPa NNW 0.5 km/h 8 km/h 85% 0 mm 0 W/m2
03:34 18.7 °C 16.2 °C 1016.1 hPa NNW 0.2 km/h 8 km/h 85% 0 mm 0 W/m2
03:39 18.7 °C 16.3 °C 1016.5 hPa Calm   3.2 km/h 86% 0 mm 0 W/m2
03:44 18.6 °C 16.2 °C 1016.5 hPa Calm   3.2 km/h 86% 0 mm 0 W/m2
03:49 18.6 °C 16.2 °C 1016.5 hPa NNW 0.6 km/h 4.8 km/h 86% 0 mm 0 W/m2
03:54 18.4 °C 16.1 °C 1016.5 hPa NNW 0.2 km/h 4.8 km/h 86% 0 mm 0 W/m2
03:59 18.4 °C 16.1 °C 1016.5 hPa NNW 1 km/h 6.4 km/h 86.6% 0 mm 0 W/m2
04:09 18.2 °C 16 °C 1016.8 hPa NNW 0.3 km/h 4.8 km/h 87% 0 mm 0 W/m2
04:14 18.1 °C 15.9 °C 1016.5 hPa NW 1.6 km/h 11.3 km/h 87% 0 mm 0 W/m2
04:19 18 °C 15.8 °C 1016.8 hPa NW 1.6 km/h 11.3 km/h 87% 0 mm 0 W/m2
04:24 17.9 °C 15.7 °C 1016.8 hPa NNW 1.1 km/h 11.3 km/h 87% 0 mm 0 W/m2
04:29 17.9 °C 15.6 °C 1016.8 hPa NNW 1.1 km/h 11.3 km/h 86.4% 0 mm 0 W/m2
04:34 17.8 °C 15.4 °C 1016.8 hPa NNW 1.3 km/h 11.3 km/h 86% 0 mm 0 W/m2
04:39 17.8 °C 15.3 °C 1016.8 hPa NNW 0.8 km/h 9.7 km/h 85.7% 0 mm 0 W/m2
04:44 17.7 °C 15.3 °C 1016.8 hPa NW 0.5 km/h 9.7 km/h 85.7% 0 mm 0 W/m2
04:49 17.7 °C 15.1 °C 1016.8 hPa NW 0.5 km/h 9.7 km/h 85.1% 0 mm 0 W/m2
04:54 17.6 °C 15 °C 1016.8 hPa NW 0.2 km/h 9.7 km/h 85% 0 mm 0 W/m2
04:59 17.4 °C 14.9 °C 1016.8 hPa Calm   9.7 km/h 85% 0 mm 0 W/m2
05:04 17.4 °C 14.8 °C 1017.2 hPa Calm   9.7 km/h 85% 0 mm 0 W/m2
05:09 17.3 °C 14.8 °C 1016.8 hPa NNW 0.6 km/h 8 km/h 85% 0 mm 0 W/m2
05:14 17.2 °C 14.7 °C 1017.2 hPa NNW 0.3 km/h 8 km/h 85% 0 mm 0 W/m2
05:19 17.2 °C 14.7 °C 1017.2 hPa NNW 0.5 km/h 8 km/h 85.4% 0 mm 0 W/m2
05:24 17.1 °C 14.7 °C 1017.2 hPa NNW 0.8 km/h 8 km/h 86% 0 mm 0 W/m2
05:29 17 °C 14.8 °C 1017.5 hPa NNW 0.8 km/h 9.7 km/h 86.8% 0 mm 0 W/m2
05:34 16.9 °C 14.8 °C 1017.2 hPa NW 0.3 km/h 9.7 km/h 87% 0 mm 0 W/m2
05:39 16.9 °C 14.7 °C 1017.2 hPa NW 0.6 km/h 8 km/h 87% 0 mm 0 W/m2
05:44 16.8 °C 14.6 °C 1017.5 hPa NW 1 km/h 8 km/h 87% 0 mm 0 W/m2
05:49 16.7 °C 14.6 °C 1017.5 hPa Calm   8 km/h 87% 0 mm 0 W/m2
05:54 16.7 °C 14.5 °C 1017.5 hPa NW 0.8 km/h 8 km/h 87% 0 mm 0 W/m2
05:59 16.6 °C 14.4 °C 1017.8 hPa Calm   8 km/h 87% 0 mm 0 W/m2
06:04 16.5 °C 14.3 °C 1017.8 hPa NW 1 km/h 8 km/h 87% 0 mm 0 W/m2
06:09 16.4 °C 14.1 °C 1017.8 hPa North 0.3 km/h 8 km/h 86% 0 mm 0 W/m2
06:14 16.3 °C 14 °C 1017.8 hPa NW 0.6 km/h 11.3 km/h 86% 0 mm 0 W/m2
06:19 16.2 °C 13.9 °C 1017.8 hPa NW 0.6 km/h 11.3 km/h 86% 0 mm 0 W/m2
06:24 16.2 °C 13.7 °C 1017.8 hPa NW 1.3 km/h 11.3 km/h 85.3% 0 mm 0 W/m2
06:29 16.1 °C 13.6 °C 1017.8 hPa NW 0.8 km/h 11.3 km/h 85% 0 mm 0 W/m2
06:34 16.1 °C 13.4 °C 1017.8 hPa NW 0.3 km/h 11.3 km/h 84.2% 0 mm 0 W/m2
06:39 16 °C 13.2 °C 1018.2 hPa NW 1 km/h 8 km/h 83.6% 0 mm 0 W/m2
06:44 15.9 °C 13.1 °C 1018.2 hPa NW 1.4 km/h 11.3 km/h 83% 0 mm 5 W/m2
06:49 15.9 °C 12.9 °C 1018.2 hPa NW 2.3 km/h 11.3 km/h 82% 0 mm 5 W/m2
06:54 15.9 °C 12.8 °C 1018.5 hPa NNW 1.8 km/h 11.3 km/h 82% 0 mm 7 W/m2
06:59 15.9 °C 12.7 °C 1018.5 hPa NNW 1.3 km/h 11.3 km/h 81.4% 0 mm 9 W/m2
07:04 15.9 °C 12.6 °C 1018.5 hPa NNW 1 km/h 11.3 km/h 81% 0 mm 11 W/m2
07:09 15.9 °C 12.7 °C 1018.5 hPa NNW 0.8 km/h 9.7 km/h 81% 0 mm 11 W/m2
07:14 15.9 °C 12.6 °C 1018.8 hPa NNW 0.3 km/h 9.7 km/h 81% 0 mm 12 W/m2
07:19 15.8 °C 12.6 °C 1018.8 hPa Calm   9.7 km/h 81% 0 mm 14 W/m2
07:24 15.8 °C 12.6 °C 1018.8 hPa Calm   9.7 km/h 81% 0 mm 14 W/m2
07:29 15.8 °C 12.6 °C 1019.2 hPa NNW 0.2 km/h 9.7 km/h 81% 0 mm 16 W/m2
07:34 15.8 °C 12.6 °C 1019.2 hPa NW 0.6 km/h 9.7 km/h 81% 0 mm 16 W/m2
07:39 15.9 °C 12.7 °C 1019.2 hPa NNW 0.6 km/h 9.7 km/h 81% 0 mm 18 W/m2
07:44 15.9 °C 12.6 °C 1019.5 hPa NNW 0.3 km/h 9.7 km/h 80.5% 0 mm 18 W/m2
07:49 16 °C 12.6 °C 1019.5 hPa NNW 0.2 km/h 9.7 km/h 80% 0 mm 19 W/m2
07:54 16.1 °C 12.6 °C 1019.5 hPa NNW 1.3 km/h 9.7 km/h 79.5% 0 mm 40 W/m2
07:59 16.2 °C 12.6 °C 1019.5 hPa NNW 0.2 km/h 9.7 km/h 79% 0 mm 28 W/m2
08:04 16.3 °C 12.4 °C 1019.5 hPa Calm     78% 0 mm 86 W/m2
08:09 16.4 °C 12.7 °C 1019.5 hPa North 0.5 km/h 6.4 km/h 78.6% 0 mm 90 W/m2
08:14 16.6 °C 12.8 °C 1019.5 hPa NNW 1.1 km/h 9.7 km/h 78.8% 0 mm 97 W/m2
08:19 16.7 °C 12.7 °C 1019.5 hPa North 1 km/h 9.7 km/h 77% 0 mm 77 W/m2
08:24 16.8 °C 12.7 °C 1019.5 hPa North 0.6 km/h 9.7 km/h 76.9% 0 mm 60 W/m2
08:29 16.8 °C 12.6 °C 1019.9 hPa NNW 0.3 km/h 9.7 km/h 76% 0 mm 91 W/m2
08:34 16.9 °C 12.7 °C 1019.9 hPa Calm   9.7 km/h 76.1% 0 mm 100 W/m2
08:39 16.9 °C 12.6 °C 1019.9 hPa NNE 0.6 km/h 6.4 km/h 75.6% 0 mm 79 W/m2
08:44 17 °C 12.7 °C 1019.9 hPa North 0.5 km/h 9.7 km/h 75.5% 0 mm 88 W/m2
08:49 17.1 °C 12.7 °C 1019.9 hPa NNE 0.8 km/h 9.7 km/h 75.2% 0 mm 93 W/m2
08:54 17.3 °C 12.7 °C 1019.9 hPa NE 1 km/h 11.3 km/h 74.3% 0 mm 158 W/m2
08:59 17.5 °C 12.8 °C 1019.9 hPa NNW 2.4 km/h 16.1 km/h 73.8% 0 mm 408 W/m2
09:04 17.8 °C 12.9 °C 1019.9 hPa NNE 0.6 km/h 16.1 km/h 73.1% 0 mm 415 W/m2
09:09 18.3 °C 13.3 °C 1019.9 hPa NNE 0.5 km/h 8 km/h 72.6% 0 mm 464 W/m2
09:14 18.8 °C 13.1 °C 1019.9 hPa NNW 1.3 km/h 14.5 km/h 69.7% 0 mm 485 W/m2
09:19 19.3 °C 13.4 °C 1019.9 hPa NNW 1.6 km/h 14.5 km/h 68.5% 0 mm 504 W/m2
09:24 19.9 °C 13.7 °C 1019.9 hPa NW 3.7 km/h 16.1 km/h 67.4% 0 mm 524 W/m2
09:29 20.3 °C 13.3 °C 1019.9 hPa NNW 1.3 km/h 16.1 km/h 63.9% 0 mm 538 W/m2
09:34 20.6 °C 13.4 °C 1020.2 hPa ENE 3.1 km/h 17.7 km/h 63.2% 0 mm 550 W/m2
09:39 20.7 °C 12.9 °C 1020.2 hPa ENE 1.6 km/h 17.7 km/h 61.1% 0 mm 557 W/m2
09:44 20.8 °C 13.1 °C 1020.2 hPa NNE 2.9 km/h 17.7 km/h 61.3% 0 mm 571 W/m2
09:49 20.8 °C 13.1 °C 1020.2 hPa NE 2.7 km/h 17.7 km/h 61.1% 0 mm 584 W/m2
09:54 20.9 °C 13.3 °C 1020.2 hPa ENE 1.1 km/h 17.7 km/h 61.6% 0 mm 601 W/m2
09:59 21.1 °C 13.2 °C 1020.2 hPa ENE 2.9 km/h 17.7 km/h 60.4% 0 mm 615 W/m2
10:04 21.3 °C 12.8 °C 1020.2 hPa ENE 4 km/h 17.7 km/h 58.6% 0 mm 628 W/m2
10:09 21.3 °C 12.9 °C 1020.2 hPa NNE 2.6 km/h 19.3 km/h 59% 0 mm 636 W/m2
10:14 21.5 °C 13.6 °C 1020.2 hPa North 3.5 km/h 19.3 km/h 60.6% 0 mm 650 W/m2
10:19 21.9 °C 13.6 °C 1020.2 hPa NNW 2.1 km/h 19.3 km/h 59.1% 0 mm 657 W/m2
10:24 22.3 °C 14 °C 1020.2 hPa North 2.1 km/h 19.3 km/h 59.3% 0 mm 668 W/m2
10:29 22.7 °C 13.6 °C 1020.2 hPa North 3.4 km/h 19.3 km/h 56.4% 0 mm 684 W/m2
10:34 22.9 °C 13.4 °C 1020.2 hPa NNE 4.2 km/h 19.3 km/h 55.2% 0 mm 693 W/m2
10:39 22.7 °C 12.9 °C 1020.2 hPa ENE 1.9 km/h 16.1 km/h 53.8% 0 mm 701 W/m2
10:44 22.6 °C 13 °C 1020.2 hPa ENE 2.6 km/h 16.1 km/h 54.6% 0 mm 714 W/m2
10:49 22.8 °C 13.1 °C 1020.2 hPa NE 3.7 km/h 17.7 km/h 54.3% 0 mm 721 W/m2
10:54 22.8 °C 12.7 °C 1020.2 hPa ENE 5.5 km/h 17.7 km/h 52.9% 0 mm 729 W/m2
10:59 22.8 °C 12.8 °C 1020.2 hPa East 4.7 km/h 17.7 km/h 53.1% 0 mm 737 W/m2
11:04 22.7 °C 12.6 °C 1020.2 hPa ENE 4.5 km/h 19.3 km/h 52.6% 0 mm 749 W/m2
11:09 22.8 °C 12.5 °C 1020.2 hPa ENE 4.7 km/h 19.3 km/h 52.2% 0 mm 758 W/m2
11:14 22.9 °C 12.6 °C 1020.5 hPa ENE 5.6 km/h 19.3 km/h 52.3% 0 mm 768 W/m2
11:19 22.9 °C 12.7 °C 1020.5 hPa ENE 3.9 km/h 19.3 km/h 52.4% 0 mm 773 W/m2
11:24 23 °C 12.5 °C 1020.5 hPa ENE 3.7 km/h 19.3 km/h 51.6% 0 mm 780 W/m2
11:29 22.8 °C 12.6 °C 1020.5 hPa ENE 3.9 km/h 19.3 km/h 52.3% 0 mm 788 W/m2
11:34 22.8 °C 12.8 °C 1020.5 hPa ENE 4.8 km/h 19.3 km/h 53.1% 0 mm 789 W/m2
11:39 22.8 °C 13.1 °C 1020.5 hPa NE 2.9 km/h 17.7 km/h 54.2% 0 mm 788 W/m2
11:44 22.8 °C 12.9 °C 1020.5 hPa ENE 3.5 km/h 17.7 km/h 53.4% 0 mm 225 W/m2
11:49 22.7 °C 12.8 °C 1020.5 hPa East 1 km/h 17.7 km/h 53.6% 0 mm 236 W/m2
11:54 22.4 °C 12.5 °C 1020.5 hPa ENE 2.7 km/h 17.7 km/h 53.3% 0 mm 390 W/m2
11:59 22.3 °C 12.9 °C 1020.5 hPa NE 1.6 km/h 17.7 km/h 55.5% 0 mm 62 W/m2
12:00 22.2 °C 13.1 °C 1020.2 hPa NE 8 km/h 17.7 km/h 56% 0 mm 54 W/m2
12:09 22.1 °C 12.9 °C 1020.5 hPa NNE 1.6 km/h 11.3 km/h 55.7% 0 mm 54 W/m2
12:14 22.1 °C 12.3 °C 1020.5 hPa ENE 1.6 km/h 11.3 km/h 53.8% 0 mm 42 W/m2
12:19 21.9 °C 12.6 °C 1020.5 hPa North 0.3 km/h 11.3 km/h 55.2% 0 mm 202 W/m2
12:24 22 °C 12.6 °C 1020.5 hPa North 2.3 km/h 14.5 km/h 55.2% 0 mm 244 W/m2
12:29 22.1 °C 12.6 °C 1020.5 hPa East 0.5 km/h 14.5 km/h 54.7% 0 mm 459 W/m2
12:34 22.2 °C 12.8 °C 1020.5 hPa North 1.4 km/h 14.5 km/h 55.3% 0 mm 211 W/m2
12:39 22.3 °C 13.3 °C 1020.5 hPa NE 2.7 km/h 17.7 km/h 56.5% 0 mm 174 W/m2
12:44 22.4 °C 12.8 °C 1020.5 hPa NE 2.9 km/h 17.7 km/h 54.4% 0 mm 111 W/m2
12:49 22.4 °C 13.3 °C 1020.5 hPa NNW 1.4 km/h 17.7 km/h 56.3% 0 mm 40 W/m2
12:54 22.4 °C 12.8 °C 1020.5 hPa NE 4.8 km/h 19.3 km/h 54.6% 0 mm 167 W/m2
12:59 22.3 °C 12.4 °C 1020.5 hPa ENE 3.4 km/h 20.9 km/h 53.6% 0 mm 167 W/m2
13:04 22.3 °C 12.3 °C 1020.5 hPa NNW 3.5 km/h 20.9 km/h 53.2% 0 mm 167 W/m2
13:09 22.3 °C 12.3 °C 1020.5 hPa North 1.6 km/h 16.1 km/h 53% 0 mm 183 W/m2
13:14 22.3 °C 12.1 °C 1020.5 hPa NNE 0.8 km/h 16.1 km/h 52.3% 0 mm 97 W/m2
13:19 22.3 °C 12.4 °C 1020.2 hPa NE 5 km/h 17.7 km/h 53.7% 0 mm 169 W/m2
13:24 22.3 °C 12.6 °C 1020.2 hPa NW 1.8 km/h 17.7 km/h 54.1% 0 mm 69 W/m2
13:29 22.4 °C 12.7 °C 1020.2 hPa NE 3.4 km/h 17.7 km/h 54.2% 0 mm 49 W/m2
13:34 22.4 °C 12.4 °C 1020.2 hPa NNE 1.3 km/h 17.7 km/h 53.1% 0 mm 65 W/m2
13:39 22.4 °C 12.7 °C 1019.9 hPa NE 3.9 km/h 14.5 km/h 54% 0 mm 102 W/m2
13:44 22.5 °C 12.7 °C 1019.9 hPa North 1.3 km/h 14.5 km/h 53.7% 0 mm 77 W/m2
13:49 22.5 °C 12.5 °C 1019.9 hPa ENE 1.9 km/h 14.5 km/h 53.2% 0 mm 42 W/m2
13:54 22.6 °C 12.7 °C 1019.9 hPa NNW 1.8 km/h 16.1 km/h 53.6% 0 mm 42 W/m2
13:59 22.6 °C 12.9 °C 1019.9 hPa NNW 1.8 km/h 16.1 km/h 54.3% 0 mm 46 W/m2
14:04 22.7 °C 12.6 °C 1019.9 hPa East 0.8 km/h 16.1 km/h 53.1% 0 mm 51 W/m2
14:09 22.7 °C 12.8 °C 1019.9 hPa NNW 1.4 km/h 9.7 km/h 53.4% 0 mm 62 W/m2
14:14 22.7 °C 12.9 °C 1019.9 hPa NW 2.4 km/h 11.3 km/h 53.8% 0 mm 58 W/m2
14:19 22.8 °C 12.5 °C 1019.9 hPa ENE 3.4 km/h 11.3 km/h 52.1% 0 mm 60 W/m2
14:24 22.8 °C 12.2 °C 1019.9 hPa NNW 3.5 km/h 12.9 km/h 51.2% 0 mm 239 W/m2
14:29 22.8 °C 12.3 °C 1019.9 hPa NNE 0.6 km/h 12.9 km/h 51.7% 0 mm 165 W/m2
14:34 22.8 °C 11.8 °C 1019.9 hPa NW 1.8 km/h 14.5 km/h 49.9% 0 mm 70 W/m2
14:39 22.8 °C 11.8 °C 1019.9 hPa NE 0.8 km/h 14.5 km/h 49.7% 0 mm 142 W/m2
14:44 22.9 °C 12 °C 1019.9 hPa NW 0.6 km/h 14.5 km/h 50.2% 0 mm 97 W/m2
14:49 23.1 °C 12.1 °C 1019.9 hPa North 0.3 km/h 14.5 km/h 50% 0 mm 594 W/m2
14:54 23.1 °C 12 °C 1019.9 hPa NE 0.3 km/h 14.5 km/h 49.5% 0 mm 72 W/m2
14:59 23.1 °C 11.6 °C 1019.9 hPa NE 0.2 km/h 14.5 km/h 48.2% 0 mm 39 W/m2
15:04 23.1 °C 11.4 °C 1019.9 hPa ENE 2.9 km/h 14.5 km/h 48% 0 mm 37 W/m2
15:09 23.1 °C 11.3 °C 1019.5 hPa North 0.5 km/h 12.9 km/h 47.5% 0 mm 162 W/m2
15:14 23.2 °C 11.2 °C 1019.5 hPa NW 3.2 km/h 14.5 km/h 46.8% 0 mm 512 W/m2
15:19 23.3 °C 11.1 °C 1019.5 hPa NE 2.1 km/h 14.5 km/h 46.3% 0 mm 664 W/m2
15:24 23.3 °C 11.2 °C 1019.5 hPa NNW 2.3 km/h 14.5 km/h 46.5% 0 mm 647 W/m2
15:29 23.3 °C 10.8 °C 1019.5 hPa NNW 0.8 km/h 14.5 km/h 45.2% 0 mm 638 W/m2
15:34 23.4 °C 11.1 °C 1019.5 hPa ENE 0.6 km/h 14.5 km/h 45.6% 0 mm 633 W/m2
15:39 23.6 °C 10.9 °C 1019.5 hPa NE 1.8 km/h 8 km/h 44.7% 0 mm 626 W/m2
15:44 23.7 °C 10.9 °C 1019.5 hPa NNW 1.4 km/h 8 km/h 44.7% 0 mm 520 W/m2
15:49 23.7 °C 10.5 °C 1019.5 hPa NE 0.6 km/h 8 km/h 43.2% 0 mm 585 W/m2
15:54 23.7 °C 11.1 °C 1019.5 hPa NNW 1.3 km/h 8 km/h 45% 0 mm 557 W/m2
15:59 23.7 °C 10.9 °C 1019.5 hPa ENE 0.5 km/h 8 km/h 44.7% 0 mm 30 W/m2
16:00 23.6 °C 11.3 °C 1019.5 hPa Calm   8 km/h 46% 0 mm 30 W/m2
16:09 23.4 °C 11.2 °C 1019.5 hPa NNE 0.3 km/h 6.4 km/h 46% 0 mm 28 W/m2
16:14 23.4 °C 10.1 °C 1019.5 hPa NNW 1.3 km/h 8 km/h 43% 0 mm 28 W/m2
16:19 23.4 °C 9.8 °C 1019.5 hPa NW 1.8 km/h 14.5 km/h 42.3% 0 mm 26 W/m2
16:24 23.3 °C 9.6 °C 1019.5 hPa NNW 1.8 km/h 14.5 km/h 41.6% 0 mm 26 W/m2
16:29 23.3 °C 9.6 °C 1019.5 hPa NNW 1 km/h 14.5 km/h 41.7% 0 mm 26 W/m2
16:34 23.3 °C 10.1 °C 1019.5 hPa NNW 0.3 km/h 14.5 km/h 43.1% 0 mm 25 W/m2
16:39 23.3 °C 10.3 °C 1019.5 hPa NW 1.4 km/h 14.5 km/h 43.7% 0 mm 25 W/m2
16:44 23.3 °C 10.6 °C 1019.5 hPa NNW 1.1 km/h 14.5 km/h 44.5% 0 mm 25 W/m2
16:49 23.3 °C 10.4 °C 1019.5 hPa NNE 0.5 km/h 14.5 km/h 44.1% 0 mm 25 W/m2
16:54 23.3 °C 9.9 °C 1019.2 hPa NE 0.2 km/h 14.5 km/h 42.6% 0 mm 23 W/m2
16:59 23.3 °C 10.4 °C 1019.2 hPa Calm   14.5 km/h 44.2% 0 mm 23 W/m2
17:04 23.2 °C 10.1 °C 1019.2 hPa NE 0.5 km/h 14.5 km/h 43.3% 0 mm 23 W/m2
17:09 23.2 °C 10.2 °C 1019.2 hPa Calm   3.2 km/h 43.8% 0 mm 23 W/m2
17:14 23.2 °C 10.3 °C 1019.2 hPa NE 0.8 km/h 4.8 km/h 44% 0 mm 23 W/m2
17:19 23.2 °C 10.1 °C 1019.2 hPa NE 0.5 km/h 4.8 km/h 43.5% 0 mm 21 W/m2
17:24 23.1 °C 9.9 °C 1019.2 hPa Calm   4.8 km/h 43.2% 0 mm 21 W/m2
17:29 23.1 °C 10.3 °C 1019.5 hPa Calm   4.8 km/h 44.4% 0 mm 21 W/m2
17:34 23.1 °C 10.6 °C 1019.5 hPa NNE 0.3 km/h 4.8 km/h 45.4% 0 mm 19 W/m2
17:39 23 °C 10.4 °C 1019.2 hPa Calm   3.2 km/h 45.1% 0 mm 19 W/m2
17:44 22.9 °C 10.8 °C 1019.5 hPa Calm   3.2 km/h 46.2% 0 mm 19 W/m2
17:49 22.8 °C 10.6 °C 1019.5 hPa Calm   3.2 km/h 46% 0 mm 18 W/m2
17:54 22.7 °C 10.4 °C 1019.5 hPa NE 0.5 km/h 4.8 km/h 45.7% 0 mm 18 W/m2
17:59 22.6 °C 10.4 °C 1019.5 hPa Calm   4.8 km/h 45.8% 0 mm 16 W/m2
18:04 22.6 °C 10.2 °C 1019.5 hPa Calm   4.8 km/h 45.5% 0 mm 14 W/m2
18:09 22.4 °C 10.4 °C 1019.5 hPa Calm     46.3% 0 mm 14 W/m2
18:14 22.4 °C 10.4 °C 1019.5 hPa Calm     46.8% 0 mm 12 W/m2
18:19 22.3 °C 10.6 °C 1019.9 hPa Calm     47.5% 0 mm 11 W/m2
18:24 22.2 °C 10.5 °C 1019.9 hPa Calm     47.4% 0 mm 11 W/m2
18:29 22.1 °C 10.6 °C 1019.9 hPa Calm     48% 0 mm 9 W/m2
18:34 21.9 °C 10.6 °C 1020.2 hPa Calm     48.4% 0 mm 7 W/m2
18:39 21.8 °C 10.5 °C 1020.2 hPa Calm     48.5% 0 mm 5 W/m2
18:44 21.7 °C 10.6 °C 1020.2 hPa Calm     49.3% 0 mm 5 W/m2
18:49 21.6 °C 11.3 °C 1020.2 hPa Calm     51.9% 0 mm 0 W/m2
18:54 21.4 °C 11.8 °C 1020.2 hPa Calm     54.3% 0 mm 0 W/m2
18:59 21.3 °C 12.5 °C 1020.2 hPa Calm     57.3% 0 mm 0 W/m2
19:04 21.1 °C 12.9 °C 1020.2 hPa Calm     59.4% 0 mm 0 W/m2
19:09 20.9 °C 13.1 °C 1020.2 hPa Calm     60.9% 0 mm 0 W/m2
19:14 20.7 °C 13.2 °C 1020.2 hPa Calm     62.2% 0 mm 0 W/m2
19:19 20.5 °C 13.3 °C 1020.2 hPa Calm     63.3% 0 mm 0 W/m2
19:24 20.3 °C 13.5 °C 1020.5 hPa Calm   1.6 km/h 65% 0 mm 0 W/m2
19:29 20.1 °C 13.5 °C 1020.5 hPa Calm   1.6 km/h 66.1% 0 mm 0 W/m2
19:34 19.7 °C 13.4 °C 1020.5 hPa Calm   1.6 km/h 67% 0 mm 0 W/m2
19:39 19.5 °C 13.3 °C 1020.5 hPa Calm     67.3% 0 mm 0 W/m2
19:44 19.3 °C 13.4 °C 1020.5 hPa Calm     68.5% 0 mm 0 W/m2
19:49 19.1 °C 13.6 °C 1020.9 hPa Calm     70.5% 0 mm 0 W/m2
19:54 18.9 °C 13.7 °C 1020.9 hPa Calm     71.6% 0 mm 0 W/m2
19:59 18.7 °C 13.7 °C 1020.9 hPa Calm     72.9% 0 mm 0 W/m2
20:00 18.6 °C 13.6 °C 1020.9 hPa Calm     73% 0 mm 0 W/m2
20:09 18.3 °C 13.4 °C 1021.2 hPa Calm   1.6 km/h 73% 0 mm 0 W/m2
20:14 18.1 °C 13.2 °C 1021.2 hPa Calm   1.6 km/h 73% 0 mm 0 W/m2
20:19 17.9 °C 13.1 °C 1021.2 hPa Calm   1.6 km/h 73% 0 mm 0 W/m2
20:24 17.8 °C 13.1 °C 1021.2 hPa NE 0.5 km/h 3.2 km/h 73.8% 0 mm 0 W/m2
20:29 17.7 °C 13.5 °C 1021.6 hPa NE 0.5 km/h 4.8 km/h 76.2% 0 mm 0 W/m2
20:34 17.6 °C 13.4 °C 1021.6 hPa Calm   4.8 km/h 76.4% 0 mm 0 W/m2
20:39 17.4 °C 12.9 °C 1021.6 hPa Calm     74.9% 0 mm 0 W/m2
20:44 17.2 °C 12.6 °C 1021.6 hPa Calm     74% 0 mm 0 W/m2
20:49 17.2 °C 12.6 °C 1021.6 hPa Calm     74.3% 0 mm 0 W/m2
20:54 17.1 °C 12.7 °C 1021.6 hPa Calm     75.2% 0 mm 0 W/m2
20:59 17.1 °C 12.8 °C 1021.6 hPa Calm     76% 0 mm 0 W/m2
21:04 17.1 °C 12.8 °C 1021.6 hPa Calm     76.1% 0 mm 0 W/m2
21:09 17.1 °C 13 °C 1021.6 hPa Calm     77% 0 mm 0 W/m2
21:14 17.1 °C 13 °C 1021.6 hPa Calm     77% 0 mm 0 W/m2
21:30 17.1 °C 13.2 °C 1021.6 hPa Calm     78% 0 mm 0 W/m2
22:30 16.3 °C 13.1 °C 1022.2 hPa Calm     81% 0 mm 0 W/m2
23:00 15.9 °C 13 °C 1022.9 hPa Calm     83% 0 mm 0 W/m2
23:30 15.4 °C 12.9 °C 1022.9 hPa Calm     85% 0 mm 0 W/m2
Hartford County Weather
Compliments of Weather Underground - 4 mb